createdAt,value
2022-11-18T00:00:10.250Z,6.09
2022-11-18T00:02:40.546Z,6.06
2022-11-18T00:05:09.657Z,6.08
2022-11-18T00:07:38.451Z,6.05
2022-11-18T00:10:08.011Z,6.01
2022-11-18T00:13:05.865Z,6.06
2022-11-18T00:15:34.608Z,6.10
2022-11-18T00:18:04.888Z,6.09
2022-11-18T00:20:35.235Z,6.12
2022-11-18T00:23:04.021Z,6.10
2022-11-18T00:25:34.915Z,6.11
2022-11-18T00:28:03.649Z,6.08
2022-11-18T00:30:32.379Z,6.07
2022-11-18T00:33:01.133Z,6.11
2022-11-18T00:35:31.249Z,6.14
2022-11-18T00:37:59.965Z,6.17
2022-11-18T00:40:28.692Z,6.19
2022-11-18T00:42:56.439Z,6.23
2022-11-18T00:45:25.734Z,6.24
2022-11-18T00:47:54.444Z,6.24
2022-11-18T00:50:23.138Z,6.25
2022-11-18T00:52:53.271Z,6.26
2022-11-18T00:55:21.989Z,6.28
2022-11-18T00:57:50.720Z,6.27
2022-11-18T01:00:20.626Z,6.28
2022-11-18T01:02:49.689Z,6.30
2022-11-18T01:05:18.984Z,6.20
2022-11-18T01:07:48.408Z,6.24
2022-11-18T01:10:19.364Z,6.26
2022-11-18T01:13:06.065Z,6.29
2022-11-18T01:15:41.133Z,6.24
2022-11-18T01:18:09.980Z,6.28
2022-11-18T01:20:39.337Z,6.30
2022-11-18T01:23:08.019Z,6.32
2022-11-18T01:25:40.847Z,6.34
2022-11-18T01:28:09.717Z,6.35
2022-11-18T01:30:41.616Z,6.37
2022-11-18T01:33:10.604Z,6.37
2022-11-18T01:35:41.934Z,6.38
2022-11-18T01:38:12.951Z,6.40
2022-11-18T01:40:43.490Z,6.41
2022-11-18T01:43:17.653Z,6.40
2022-11-18T01:45:50.075Z,6.40
2022-11-18T01:48:24.887Z,6.41
2022-11-18T01:50:59.338Z,6.43
2022-11-18T01:53:34.949Z,6.44
2022-11-18T01:56:13.575Z,6.33
2022-11-18T01:58:51.389Z,6.30
2022-11-18T02:01:20.998Z,6.34
2022-11-18T02:03:51.759Z,6.39
2022-11-18T02:06:21.118Z,6.42
2022-11-18T02:08:51.947Z,6.43
2022-11-18T02:11:39.494Z,6.45
2022-11-18T02:14:11.593Z,6.44
2022-11-18T02:16:58.019Z,6.47
2022-11-18T02:20:00.727Z,6.44
2022-11-18T02:22:53.920Z,6.39
2022-11-18T02:25:41.026Z,6.42
2022-11-18T02:28:38.239Z,6.46
2022-11-18T02:31:17.325Z,6.48
2022-11-18T02:33:56.512Z,6.51
2022-11-18T02:36:41.421Z,6.52
2022-11-18T02:39:18.342Z,6.53
2022-11-18T02:41:50.960Z,6.55
2022-11-18T02:44:24.093Z,6.56
2022-11-18T02:47:02.084Z,6.55
2022-11-18T02:49:39.097Z,6.56
2022-11-18T02:52:12.169Z,6.58
2022-11-18T02:54:44.537Z,6.53
2022-11-18T02:57:16.634Z,6.48
2022-11-18T02:59:45.380Z,6.53
2022-11-18T03:02:19.992Z,6.54
2022-11-18T03:04:54.223Z,6.54
2022-11-18T03:07:31.291Z,6.57
2022-11-18T03:10:02.396Z,6.59
2022-11-18T03:12:44.440Z,6.60
2022-11-18T03:15:28.183Z,6.60
2022-11-18T03:18:08.774Z,6.58
2022-11-18T03:20:46.490Z,6.58
2022-11-18T03:23:26.496Z,6.58
2022-11-18T03:26:01.547Z,6.59
2022-11-18T03:28:41.337Z,6.61
2022-11-18T03:31:20.944Z,6.60
2022-11-18T03:33:57.740Z,6.59
2022-11-18T03:36:34.776Z,6.57
2022-11-18T03:39:07.888Z,6.58
2022-11-18T03:41:57.606Z,6.56
2022-11-18T03:44:34.072Z,6.37
2022-11-18T03:47:09.873Z,6.45
2022-11-18T03:49:46.938Z,6.46
2022-11-18T03:52:21.842Z,6.48
2022-11-18T03:54:57.106Z,6.49
2022-11-18T03:57:35.981Z,6.47
2022-11-18T04:00:10.055Z,6.53
2022-11-18T04:02:39.832Z,6.56
2022-11-18T04:05:14.700Z,6.60
2022-11-18T04:07:57.541Z,6.61
2022-11-18T04:10:34.466Z,6.62
2022-11-18T04:13:09.203Z,6.64
2022-11-18T04:15:40.632Z,6.64
2022-11-18T04:18:10.659Z,6.66
2022-11-18T04:20:41.285Z,6.65
2022-11-18T04:23:10.501Z,6.64
2022-11-18T04:25:39.489Z,6.67
2022-11-18T04:28:08.335Z,6.67
2022-11-18T04:30:37.538Z,6.67
2022-11-18T04:33:06.483Z,6.51
2022-11-18T04:35:35.182Z,6.33
2022-11-18T04:38:06.430Z,6.28
2022-11-18T04:40:35.168Z,6.30
2022-11-18T04:43:04.178Z,6.33
2022-11-18T04:45:32.858Z,6.38
2022-11-18T04:48:03.823Z,6.42
2022-11-18T04:50:32.739Z,6.40
2022-11-18T04:53:01.518Z,6.45
2022-11-18T04:55:31.626Z,6.50
2022-11-18T04:58:00.411Z,6.45
2022-11-18T05:00:29.368Z,6.46
2022-11-18T05:02:58.164Z,6.47
2022-11-18T05:05:27.196Z,6.49
2022-11-18T05:07:55.978Z,6.48
2022-11-18T05:10:25.981Z,6.47
2022-11-18T05:17:57.363Z,6.48
2022-11-18T05:20:24.850Z,6.51
2022-11-18T05:22:53.633Z,6.52
2022-11-18T05:25:22.531Z,6.44
2022-11-18T05:27:51.316Z,6.41
2022-11-18T05:30:23.336Z,6.42
2022-11-18T05:32:52.102Z,6.41
2022-11-18T05:35:22.235Z,6.47
2022-11-18T05:37:51.284Z,6.47
2022-11-18T05:40:20.184Z,6.50
2022-11-18T05:43:06.670Z,6.52
2022-11-18T05:45:35.562Z,6.55
2022-11-18T05:48:05.669Z,6.58
2022-11-18T05:50:39.760Z,6.54
2022-11-18T05:53:08.538Z,6.54
2022-11-18T05:55:43.473Z,6.58
2022-11-18T05:58:12.128Z,6.56
2022-11-18T06:00:41.625Z,6.57
2022-11-18T06:03:26.116Z,6.45
2022-11-18T06:06:03.108Z,6.44
2022-11-18T06:08:41.005Z,6.45
2022-11-18T06:11:16.006Z,6.43
2022-11-18T06:13:51.737Z,6.43
2022-11-18T06:16:27.869Z,6.34
2022-11-18T06:18:57.242Z,6.34
2022-11-18T06:21:27.722Z,6.34
2022-11-18T06:23:57.047Z,6.32
2022-11-18T06:26:25.980Z,6.33
2022-11-18T06:28:56.725Z,6.34
2022-11-18T06:31:25.417Z,6.32
2022-11-18T06:33:54.160Z,6.30
2022-11-18T06:36:22.895Z,6.29
2022-11-18T06:38:52.967Z,6.27
2022-11-18T06:41:21.736Z,6.27
2022-11-18T06:43:49.394Z,6.25
2022-11-18T06:46:36.558Z,6.23
2022-11-18T06:49:05.688Z,6.20
2022-11-18T06:51:34.453Z,6.18
2022-11-18T06:54:09.204Z,6.14
2022-11-18T06:56:39.843Z,6.12
2022-11-18T06:59:08.560Z,6.10
2022-11-18T07:01:40.051Z,6.07
2022-11-18T07:04:08.879Z,6.08
2022-11-18T07:06:38.661Z,6.01
2022-11-18T07:09:09.270Z,6.05
2022-11-18T07:11:40.461Z,5.96
2022-11-18T07:14:09.724Z,5.92
2022-11-18T07:16:38.954Z,5.75
2022-11-18T07:19:12.111Z,5.77
2022-11-18T07:21:42.712Z,5.80
2022-11-18T07:24:16.335Z,5.79
2022-11-18T07:26:45.344Z,5.75
2022-11-18T07:29:14.170Z,5.76
2022-11-18T07:31:42.908Z,5.74
2022-11-18T07:34:11.720Z,5.71
2022-11-18T07:36:40.733Z,5.64
2022-11-18T07:44:12.902Z,5.72
2022-11-18T07:46:42.242Z,5.70
2022-11-18T07:49:12.839Z,5.66
2022-11-18T07:51:42.179Z,5.54
2022-11-18T07:54:13.311Z,5.55
2022-11-18T07:56:42.197Z,5.54
2022-11-18T07:59:11.205Z,5.41
2022-11-18T08:01:41.428Z,5.34
2022-11-18T08:04:15.353Z,5.43
2022-11-18T08:06:44.059Z,5.40
2022-11-18T08:09:13.525Z,5.47
2022-11-18T08:11:42.331Z,5.45
2022-11-18T08:14:11.157Z,5.53
2022-11-18T08:16:41.274Z,5.50
2022-11-18T08:19:09.969Z,5.36
2022-11-18T08:21:38.750Z,5.36
2022-11-18T08:24:08.172Z,5.38
2022-11-18T08:26:37.104Z,5.38
2022-11-18T08:29:05.885Z,5.28
2022-11-18T08:31:34.613Z,5.17
2022-11-18T08:34:07.626Z,5.21
2022-11-18T08:36:39.273Z,5.25
2022-11-18T08:39:12.780Z,5.20
2022-11-18T08:41:44.031Z,5.06
2022-11-18T08:44:15.888Z,5.00
2022-11-18T08:46:46.111Z,4.95
2022-11-18T08:49:16.817Z,4.86
2022-11-18T08:51:45.930Z,4.86
2022-11-18T08:54:14.859Z,4.80
2022-11-18T08:56:43.610Z,4.90
2022-11-18T08:59:14.773Z,4.98
2022-11-18T09:01:43.768Z,5.01
2022-11-18T09:04:12.768Z,5.01
2022-11-18T09:06:42.924Z,5.01
2022-11-18T09:09:12.082Z,5.08
2022-11-18T09:11:42.486Z,5.10
2022-11-18T09:15:11.630Z,5.01
2022-11-18T09:17:02.972Z,4.90
2022-11-18T09:19:46.767Z,4.97
2022-11-18T09:22:17.986Z,4.98
2022-11-18T09:24:46.716Z,4.99
2022-11-18T09:27:17.494Z,4.96
2022-11-18T09:29:47.076Z,4.79
2022-11-18T09:32:15.886Z,4.61
2022-11-18T09:34:44.738Z,4.64
2022-11-18T09:37:13.586Z,4.59
2022-11-18T09:39:43.764Z,4.55
2022-11-18T09:42:35.473Z,4.54
2022-11-18T09:45:23.629Z,4.49
2022-11-18T09:47:55.978Z,4.57
2022-11-18T09:53:21.911Z,4.63
2022-11-18T09:55:54.209Z,4.59
2022-11-18T09:58:35.356Z,4.48
2022-11-18T10:01:10.191Z,4.56
2022-11-18T10:03:41.699Z,4.52
2022-11-18T10:13:43.486Z,4.33
2022-11-18T10:16:30.488Z,4.23
2022-11-18T10:19:11.094Z,4.23
2022-11-18T10:21:58.608Z,4.13
2022-11-18T10:24:34.719Z,4.21
2022-11-18T10:27:03.811Z,4.25
2022-11-18T10:29:33.966Z,4.24
2022-11-18T10:32:06.304Z,4.18
2022-11-18T10:34:48.911Z,4.16
2022-11-18T10:37:45.296Z,4.21
2022-11-18T10:40:28.539Z,4.14
2022-11-18T10:42:57.889Z,4.00
2022-11-18T10:45:31.363Z,3.81
2022-11-18T10:48:09.882Z,3.84
2022-11-18T10:50:42.206Z,3.82
2022-11-18T10:53:32.759Z,3.79
2022-11-18T10:56:04.172Z,3.82
2022-11-18T10:58:38.229Z,3.89
2022-11-18T11:01:15.485Z,3.89
2022-11-18T11:04:02.134Z,3.94
2022-11-18T11:06:38.210Z,3.93
2022-11-18T11:09:29.017Z,3.77
2022-11-18T11:12:04.025Z,3.81
2022-11-18T11:14:51.180Z,3.85
2022-11-18T11:17:32.263Z,3.73
2022-11-18T11:20:11.694Z,3.72
2022-11-18T11:22:41.823Z,3.70
2022-11-18T11:25:17.155Z,3.79
2022-11-18T11:30:52.399Z,3.61
2022-11-18T11:33:34.455Z,3.73
2022-11-18T11:36:43.360Z,3.82
2022-11-18T11:40:01.766Z,3.62
2022-11-18T11:42:48.772Z,3.58
2022-11-18T11:45:33.241Z,3.61
2022-11-18T11:48:32.282Z,3.59
2022-11-18T11:51:08.382Z,3.46
2022-11-18T11:54:41.477Z,3.43
2022-11-18T11:57:24.794Z,3.36
2022-11-18T12:00:03.901Z,3.45
2022-11-18T12:03:02.004Z,3.47
2022-11-18T12:05:37.048Z,3.54
2022-11-18T12:08:14.143Z,3.53
2022-11-18T12:10:51.824Z,3.56
2022-11-18T12:13:37.889Z,3.53
2022-11-18T12:16:28.105Z,3.37
2022-11-18T12:19:02.460Z,3.35
2022-11-18T12:22:00.758Z,3.42
2022-11-18T12:24:34.465Z,3.49
2022-11-18T12:27:12.560Z,3.35
2022-11-18T12:29:55.982Z,3.23
2022-11-18T12:32:36.711Z,3.11
2022-11-18T12:35:26.256Z,3.14
2022-11-18T12:38:05.436Z,3.27
2022-11-18T12:40:47.229Z,3.13
2022-11-18T12:44:07.391Z,3.19
2022-11-18T12:47:00.808Z,3.15
2022-11-18T12:50:14.322Z,3.21
2022-11-18T12:52:57.017Z,3.27
2022-11-18T12:55:39.390Z,3.15
2022-11-18T12:58:25.725Z,3.14
2022-11-18T13:01:09.478Z,3.17
2022-11-18T13:03:38.263Z,3.22
2022-11-18T13:06:21.803Z,3.28
2022-11-18T13:08:55.929Z,3.16
2022-11-18T13:11:46.870Z,3.22
2022-11-18T13:14:41.841Z,3.16
2022-11-18T13:17:49.073Z,3.15
2022-11-18T13:20:31.131Z,3.13
2022-11-18T13:23:19.968Z,3.15
2022-11-18T13:25:51.434Z,3.18
2022-11-18T13:28:33.266Z,3.11
2022-11-18T13:31:10.918Z,3.03
2022-11-18T13:33:42.096Z,3.09
2022-11-18T13:36:19.609Z,3.05
2022-11-18T13:38:58.613Z,2.83
2022-11-18T13:41:32.802Z,2.67
2022-11-18T13:44:20.707Z,2.82
2022-11-18T13:46:53.992Z,2.87
2022-11-18T13:49:50.368Z,2.83
2022-11-18T13:52:25.963Z,2.73
2022-11-18T13:54:57.181Z,2.75
2022-11-18T13:57:29.664Z,2.78
2022-11-18T14:00:07.137Z,2.68
2022-11-18T14:02:46.411Z,2.61
2022-11-18T14:05:22.003Z,2.64
2022-11-18T14:08:06.214Z,2.61
2022-11-18T14:10:43.918Z,2.53
2022-11-18T14:13:26.110Z,2.38
2022-11-18T14:15:59.702Z,2.40
2022-11-18T14:18:34.151Z,2.46
2022-11-18T14:21:06.564Z,2.42
2022-11-18T14:23:38.154Z,2.37
2022-11-18T14:26:09.037Z,2.23
2022-11-18T14:28:39.724Z,2.25
2022-11-18T14:31:27.263Z,2.22
2022-11-18T14:34:17.585Z,2.11
2022-11-18T14:36:47.904Z,2.07
2022-11-18T14:39:31.578Z,2.02
2022-11-18T14:42:01.871Z,2.10
2022-11-18T14:44:30.798Z,1.96
2022-11-18T14:47:21.174Z,1.86
2022-11-18T14:49:50.120Z,1.75
2022-11-18T14:52:18.835Z,1.70
2022-11-18T14:54:48.858Z,1.77
2022-11-18T14:57:19.193Z,1.83
2022-11-18T14:59:48.108Z,1.73
2022-11-18T15:02:19.653Z,1.58
2022-11-18T15:04:50.817Z,1.58
2022-11-18T15:07:23.945Z,1.64
2022-11-18T15:09:53.175Z,1.59
2022-11-18T15:12:22.009Z,1.70
2022-11-18T15:14:50.955Z,1.77
2022-11-18T15:17:21.122Z,1.79
2022-11-18T15:19:49.918Z,1.78
2022-11-18T15:22:18.688Z,1.66
2022-11-18T15:24:47.356Z,1.60
2022-11-18T15:27:16.139Z,1.68
2022-11-18T15:29:44.940Z,1.70
2022-11-18T15:32:13.648Z,1.65
2022-11-18T15:34:43.791Z,1.52
2022-11-18T15:37:13.983Z,1.49
2022-11-18T15:39:42.897Z,1.55
2022-11-18T15:42:12.255Z,1.52
2022-11-18T15:44:41.074Z,1.60
2022-11-18T15:47:09.820Z,1.49
2022-11-18T15:49:43.176Z,1.40
2022-11-18T15:52:13.979Z,1.48
2022-11-18T15:54:42.780Z,1.54
2022-11-18T15:57:11.726Z,1.53
2022-11-18T15:59:40.850Z,1.48
2022-11-18T16:02:12.053Z,1.40
2022-11-18T16:04:41.177Z,1.49
2022-11-18T16:07:10.183Z,1.56
2022-11-18T16:09:57.835Z,1.56
2022-11-18T16:12:44.198Z,1.45
2022-11-18T16:15:30.430Z,1.60
2022-11-18T16:17:59.580Z,1.61
2022-11-18T16:20:29.170Z,1.53
2022-11-18T16:23:00.697Z,1.47
2022-11-18T16:25:30.892Z,1.45
2022-11-18T16:28:06.814Z,1.46
2022-11-18T16:31:02.387Z,1.42
2022-11-18T16:33:31.250Z,1.41
2022-11-18T16:36:00.147Z,1.45
2022-11-18T16:38:28.974Z,1.36
2022-11-18T16:41:00.625Z,1.30
2022-11-18T16:43:29.535Z,1.39
2022-11-18T16:45:58.204Z,1.37
2022-11-18T16:48:26.895Z,1.29
2022-11-18T16:51:20.383Z,1.36
2022-11-18T16:53:54.023Z,1.43
2022-11-18T16:56:26.959Z,1.47
2022-11-18T16:58:59.643Z,1.47
2022-11-18T17:01:30.544Z,1.49
2022-11-18T17:04:01.395Z,1.52
2022-11-18T17:06:32.695Z,1.59
2022-11-18T17:09:01.655Z,1.62
2022-11-18T17:11:32.835Z,1.65
2022-11-18T17:14:03.473Z,1.62
2022-11-18T17:16:32.456Z,1.57
2022-11-18T17:19:10.189Z,1.64
2022-11-18T17:21:40.901Z,1.63
2022-11-18T17:24:12.152Z,1.55
2022-11-18T17:26:43.257Z,1.56
2022-11-18T17:29:15.034Z,1.54
2022-11-18T17:31:44.293Z,1.53
2022-11-18T17:34:15.552Z,1.47
2022-11-18T17:36:45.298Z,1.37
2022-11-18T17:39:16.129Z,1.28
2022-11-18T17:42:07.539Z,1.29
2022-11-18T17:44:36.490Z,1.22
2022-11-18T17:47:05.996Z,1.27
2022-11-18T17:49:34.837Z,1.24
2022-11-18T17:52:03.780Z,1.28
2022-11-18T17:54:32.891Z,1.33
2022-11-18T17:57:03.174Z,1.27
2022-11-18T17:59:32.908Z,1.31
2022-11-18T18:02:02.123Z,1.24
2022-11-18T18:04:31.013Z,1.26
2022-11-18T18:06:59.909Z,1.31
2022-11-18T18:09:31.296Z,1.29
2022-11-18T18:12:23.556Z,1.27
2022-11-18T18:14:52.588Z,1.16
2022-11-18T18:17:22.018Z,1.19
2022-11-18T18:19:50.712Z,1.15
2022-11-18T18:22:19.483Z,1.16
2022-11-18T18:24:48.396Z,0.94
2022-11-18T18:27:18.866Z,0.85
2022-11-18T18:29:47.644Z,0.91
2022-11-18T18:32:16.439Z,0.98
2022-11-18T18:34:45.127Z,1.06
2022-11-18T18:37:14.968Z,1.10
2022-11-18T18:39:43.778Z,1.05
2022-11-18T18:42:12.613Z,1.17
2022-11-18T18:45:00.521Z,1.16
2022-11-18T18:47:29.694Z,1.20
2022-11-18T18:49:58.691Z,1.13
2022-11-18T18:52:27.600Z,1.13
2022-11-18T18:54:56.834Z,1.12
2022-11-18T18:57:26.439Z,1.16
2022-11-18T18:59:56.555Z,1.25
2022-11-18T19:02:25.304Z,1.23
2022-11-18T19:04:55.561Z,1.24
2022-11-18T19:07:24.518Z,1.31
2022-11-18T19:09:53.352Z,1.22
2022-11-18T19:12:40.561Z,1.17
2022-11-18T19:15:12.945Z,1.14
2022-11-18T19:17:42.681Z,1.17
2022-11-18T19:20:31.749Z,1.18
2022-11-18T19:23:05.612Z,1.09
2022-11-18T19:25:37.878Z,1.06
2022-11-18T19:28:06.972Z,1.16
2022-11-18T19:30:37.153Z,1.13
2022-11-18T19:33:06.085Z,1.15
2022-11-18T19:35:35.114Z,1.22
2022-11-18T19:38:03.845Z,1.24
2022-11-18T19:40:32.511Z,1.28
2022-11-18T19:43:01.219Z,1.29
2022-11-18T19:45:30.156Z,1.25
2022-11-18T19:48:01.850Z,1.25
2022-11-18T19:50:30.900Z,1.21
2022-11-18T19:53:19.733Z,1.25
2022-11-18T19:55:55.955Z,1.25
2022-11-18T19:58:26.080Z,1.05
2022-11-18T20:00:55.236Z,1.02
2022-11-18T20:03:25.606Z,1.01
2022-11-18T20:05:54.331Z,1.10
2022-11-18T20:08:25.411Z,1.09
2022-11-18T20:10:54.848Z,1.04
2022-11-18T20:13:23.724Z,1.00
2022-11-18T20:15:53.066Z,1.06
2022-11-18T20:18:23.285Z,1.11
2022-11-18T20:20:53.634Z,1.09
2022-11-18T20:23:22.566Z,1.11
2022-11-18T20:25:51.514Z,1.14
2022-11-18T20:28:20.356Z,1.15
2022-11-18T20:30:53.928Z,1.19
2022-11-18T20:33:23.071Z,1.08
2022-11-18T20:35:53.379Z,1.11
2022-11-18T20:38:22.200Z,1.14
2022-11-18T20:40:51.600Z,1.15
2022-11-18T20:43:21.825Z,1.15
2022-11-18T20:45:56.113Z,1.10
2022-11-18T20:48:25.607Z,1.13
2022-11-18T20:50:55.943Z,1.09
2022-11-18T20:53:26.732Z,1.09
2022-11-18T20:55:56.087Z,1.11
2022-11-18T20:58:25.460Z,1.10
2022-11-18T21:01:01.568Z,1.00
2022-11-18T21:03:31.252Z,1.00
2022-11-18T21:06:12.504Z,0.98
2022-11-18T21:08:43.772Z,0.89
2022-11-18T21:11:14.583Z,0.97
2022-11-18T21:14:01.062Z,0.99
2022-11-18T21:16:38.779Z,0.92
2022-11-18T21:19:17.021Z,0.99
2022-11-18T21:21:49.230Z,1.00
2022-11-18T21:24:20.718Z,1.01
2022-11-18T21:26:54.518Z,1.04
2022-11-18T21:29:25.927Z,1.07
2022-11-18T21:31:55.594Z,1.01
2022-11-18T21:34:24.974Z,1.01
2022-11-18T21:36:55.559Z,1.03
2022-11-18T21:39:25.478Z,1.03
2022-11-18T21:41:57.287Z,1.01
2022-11-18T21:44:28.189Z,1.00
2022-11-18T21:46:58.685Z,1.01
2022-11-18T21:49:27.860Z,1.00
2022-11-18T21:51:57.962Z,1.01
2022-11-18T21:54:26.751Z,0.99
2022-11-18T21:56:55.645Z,1.01
2022-11-18T21:59:24.431Z,1.01
2022-11-18T22:02:07.309Z,1.02
2022-11-18T22:04:53.754Z,0.98
2022-11-18T22:07:25.572Z,0.80
2022-11-18T22:09:55.299Z,0.89
2022-11-18T22:12:24.130Z,0.83
2022-11-18T22:14:52.962Z,0.86
2022-11-18T22:17:21.722Z,0.76
2022-11-18T22:19:50.421Z,0.71
2022-11-18T22:22:19.182Z,0.75
2022-11-18T22:24:49.308Z,0.70
2022-11-18T22:27:18.044Z,0.72
2022-11-18T22:29:46.764Z,0.76
2022-11-18T22:32:15.459Z,0.83
2022-11-18T22:34:47.961Z,0.67
2022-11-18T22:37:19.335Z,0.68
2022-11-18T22:39:49.404Z,0.71
2022-11-18T22:42:35.611Z,0.62
2022-11-18T22:45:04.380Z,0.54
2022-11-18T22:47:33.271Z,0.63
2022-11-18T22:50:01.978Z,0.60
2022-11-18T22:52:30.765Z,0.64
2022-11-18T22:55:00.953Z,0.68
2022-11-18T22:57:35.153Z,0.72
2022-11-18T23:00:04.864Z,0.65
2022-11-18T23:02:33.626Z,0.66
2022-11-18T23:05:02.339Z,0.68
2022-11-18T23:07:31.118Z,0.73
2022-11-18T23:10:01.675Z,0.75
2022-11-18T23:12:48.049Z,0.75
2022-11-18T23:15:16.988Z,0.74
2022-11-18T23:17:45.752Z,0.76
2022-11-18T23:20:14.592Z,0.75
2022-11-18T23:22:43.373Z,0.69
2022-11-18T23:25:13.532Z,0.60
2022-11-18T23:27:42.323Z,0.65
2022-11-18T23:30:12.605Z,0.71
2022-11-18T23:32:41.452Z,0.73
2022-11-18T23:35:10.679Z,0.54
2022-11-18T23:37:39.394Z,0.63
2022-11-18T23:40:10.232Z,0.52
2022-11-18T23:42:40.337Z,0.58
2022-11-18T23:45:10.860Z,0.59
2022-11-18T23:47:39.669Z,0.60
2022-11-18T23:50:09.668Z,0.57
2022-11-18T23:52:41.764Z,0.51
2022-11-18T23:55:11.380Z,0.44
2022-11-18T23:57:41.504Z,0.47
